Danzig, North Dakota
Current Conditions -  °F | °C
As of 11:15 PM on Friday 24 Oct 2014 (Local Time) from K7L2 Reporting Station
Broken Clouds Broken Clouds  
Wind Chill: 44°   Ceiling: 9000
Heat Index: 46°   Visibility: 10mi
Dew Point: 36°   Wind: 5mph
Humidity: 66%   Direction: 280°W
Pressure: 30.05"   Gusts: NA
Location:  46.0926°N, 99.1856°W
Report Text: K7L2 250415Z AUTO 28004KT 10SM BKN090 08/02 A3005 RMK AO2 PWINO PNO
Loading
Personal Weather Stations






























Interactive Weather Map
Tropical Storm Tracking
New forecast layout! Learn more

10-Day Weather Forecast

Advertisements
Track Severe Weather on mobile